Time;durP1;ratioP1;P1;durP2;ratioP2;P2;SDS_P1;SDS_P2;PMS_P1;PMS_P2;Temp;Humidity;BMP_temperature;BMP_pressure;BME280_temperature;BME280_humidity;BME280_pressure;Samples;Min_cycle;Max_cycle;Signal;HPM_P1;HPM_P2
2021/10/16 00:00:12;;;;;;;14.80;12.10;;;;;;;;;;4925451;29;20845;-87
2021/10/16 00:02:40;;;;;;;15.65;12.43;;;;;;;;;;4918676;29;20413;-86
2021/10/16 00:05:08;;;;;;;15.82;12.73;;;;;;;;;;4932359;29;20865;-87
2021/10/16 00:07:35;;;;;;;16.07;12.80;;;;;;;;;;4941761;29;20514;-87
2021/10/16 00:10:03;;;;;;;14.65;12.68;;;;;;;;;;4922046;29;20408;-87
2021/10/16 00:12:30;;;;;;;15.65;12.38;;;;;;;;;;4920518;29;20414;-86
2021/10/16 00:14:58;;;;;;;17.83;12.63;;;;;;;;;;4923331;29;20436;-80
2021/10/16 00:17:25;;;;;;;15.43;12.32;;;;;;;;;;4921687;29;20422;-87
2021/10/16 00:19:53;;;;;;;17.63;13.75;;;;;;;;;;4918589;29;20428;-86
2021/10/16 00:22:24;;;;;;;17.70;13.88;;;;;;;;;;4921753;29;20444;-87
2021/10/16 00:24:51;;;;;;;17.63;14.18;;;;;;;;;;4921808;29;20406;-87
2021/10/16 00:27:19;;;;;;;17.98;14.10;;;;;;;;;;4919653;29;20426;-87
2021/10/16 00:29:46;;;;;;;18.20;14.02;;;;;;;;;;4922931;29;20419;-87
2021/10/16 00:32:12;;;;;;;19.70;16.02;;;;;;;;;;4922940;29;20490;-87
2021/10/16 00:34:39;;;;;;;21.00;16.05;;;;;;;;;;4913878;29;20417;-87
2021/10/16 00:37:07;;;;;;;21.42;17.45;;;;;;;;;;4909193;29;20415;-87
2021/10/16 00:39:34;;;;;;;21.38;17.33;;;;;;;;;;4909340;29;20477;-86
2021/10/16 00:42:01;;;;;;;19.60;16.20;;;;;;;;;;4916186;29;20431;-86
2021/10/16 00:44:28;;;;;;;21.02;16.80;;;;;;;;;;4921137;29;20415;-87
2021/10/16 00:46:59;;;;;;;20.75;16.75;;;;;;;;;;4925415;29;20444;-87
2021/10/16 00:49:27;;;;;;;19.90;16.88;;;;;;;;;;4917975;29;20464;-87
2021/10/16 00:51:54;;;;;;;21.65;16.60;;;;;;;;;;4909564;29;20431;-87
2021/10/16 00:54:23;;;;;;;21.60;16.77;;;;;;;;;;4910163;29;20424;-87
2021/10/16 00:56:52;;;;;;;22.53;16.87;;;;;;;;;;4909914;29;20484;-87
2021/10/16 00:59:20;;;;;;;23.27;17.45;;;;;;;;;;4925335;29;20468;-87
2021/10/16 01:01:47;;;;;;;23.67;17.00;;;;;;;;;;4931080;29;20467;-87
2021/10/16 01:04:14;;;;;;;23.10;18.25;;;;;;;;;;4937242;29;20418;-87
2021/10/16 01:06:41;;;;;;;24.45;18.50;;;;;;;;;;4939797;29;20429;-87
2021/10/16 01:09:09;;;;;;;23.40;19.52;;;;;;;;;;4938874;29;20413;-87
2021/10/16 01:11:39;;;;;;;24.90;19.02;;;;;;;;;;4934717;29;20423;-87
2021/10/16 01:14:08;;;;;;;25.83;19.27;;;;;;;;;;4929446;29;20419;-87
2021/10/16 01:16:36;;;;;;;25.38;19.23;;;;;;;;;;4931391;29;20985;-87
2021/10/16 01:19:07;;;;;;;24.17;18.55;;;;;;;;;;4935932;29;20890;-89
2021/10/16 01:21:37;;;;;;;23.25;18.58;;;;;;;;;;4933798;29;20932;-87
2021/10/16 01:24:05;;;;;;;24.00;18.67;;;;;;;;;;4935814;29;20906;-87
2021/10/16 01:26:33;;;;;;;25.80;18.95;;;;;;;;;;4933364;29;20419;-88
2021/10/16 01:29:01;;;;;;;23.33;18.77;;;;;;;;;;4924396;29;20432;-87
2021/10/16 01:31:28;;;;;;;23.17;18.83;;;;;;;;;;4930105;29;20421;-87
2021/10/16 01:33:55;;;;;;;23.02;18.38;;;;;;;;;;4920262;29;20426;-87
2021/10/16 01:36:23;;;;;;;22.93;18.30;;;;;;;;;;4926252;29;20904;-87
2021/10/16 01:38:51;;;;;;;23.90;18.53;;;;;;;;;;4924264;29;20457;-87
2021/10/16 01:41:18;;;;;;;23.80;18.85;;;;;;;;;;4929518;29;20473;-87
2021/10/16 01:43:45;;;;;;;24.42;18.95;;;;;;;;;;4928516;29;20919;-86
2021/10/16 01:46:13;;;;;;;23.23;18.55;;;;;;;;;;4921734;29;21151;-88
2021/10/16 01:48:39;;;;;;;23.77;18.27;;;;;;;;;;4921628;29;20445;-87
2021/10/16 01:51:06;;;;;;;23.70;18.20;;;;;;;;;;4925335;29;20914;-88
2021/10/16 01:53:33;;;;;;;22.75;17.80;;;;;;;;;;4930301;29;20414;-88
2021/10/16 01:56:02;;;;;;;20.75;17.00;;;;;;;;;;4926546;29;21217;-88
2021/10/16 01:58:28;;;;;;;24.45;18.23;;;;;;;;;;4923154;29;20416;-87
2021/10/16 02:00:56;;;;;;;21.52;17.20;;;;;;;;;;4920036;29;20818;-87
2021/10/16 02:03:23;;;;;;;23.48;17.33;;;;;;;;;;4928438;29;20429;-88
2021/10/16 02:05:50;;;;;;;25.20;17.93;;;;;;;;;;4930065;29;20452;-87
2021/10/16 02:08:16;;;;;;;23.60;18.27;;;;;;;;;;4926203;29;20438;-87
2021/10/16 02:10:43;;;;;;;23.30;17.40;;;;;;;;;;4929606;29;20915;-87
2021/10/16 02:13:12;;;;;;;20.50;17.23;;;;;;;;;;4930848;29;20422;-88
2021/10/16 02:15:39;;;;;;;21.35;17.50;;;;;;;;;;4930532;29;20471;-87
2021/10/16 02:18:06;;;;;;;23.35;17.60;;;;;;;;;;4929537;29;20418;-87
2021/10/16 02:20:33;;;;;;;20.10;16.48;;;;;;;;;;4930456;29;20421;-87
2021/10/16 02:23:00;;;;;;;22.42;16.30;;;;;;;;;;4929670;29;20417;-87
2021/10/16 02:25:27;;;;;;;19.40;15.55;;;;;;;;;;4930561;29;20414;-87
2021/10/16 02:27:54;;;;;;;19.50;15.52;;;;;;;;;;4927379;29;20443;-88
2021/10/16 02:30:22;;;;;;;20.17;15.52;;;;;;;;;;4930672;29;20413;-87
2021/10/16 02:32:49;;;;;;;18.70;15.15;;;;;;;;;;4929041;29;20504;-88
2021/10/16 02:35:16;;;;;;;19.10;15.02;;;;;;;;;;4931102;29;20424;-87
2021/10/16 02:37:43;;;;;;;18.52;13.90;;;;;;;;;;4929664;29;20419;-87
2021/10/16 02:40:11;;;;;;;19.23;14.77;;;;;;;;;;4928859;29;20433;-86
2021/10/16 02:42:39;;;;;;;18.05;14.02;;;;;;;;;;4930417;29;20461;-86
2021/10/16 02:45:07;;;;;;;19.42;14.55;;;;;;;;;;4930518;29;20417;-86
2021/10/16 02:47:35;;;;;;;18.40;14.13;;;;;;;;;;4930099;29;20434;-86
2021/10/16 02:50:02;;;;;;;15.00;12.82;;;;;;;;;;4930661;29;20669;-87
2021/10/16 02:52:29;;;;;;;15.05;12.30;;;;;;;;;;4930407;29;20413;-86
2021/10/16 02:54:56;;;;;;;15.50;12.30;;;;;;;;;;4927412;29;20417;-87
2021/10/16 02:57:23;;;;;;;15.32;11.70;;;;;;;;;;4929472;29;20442;-86
2021/10/16 02:59:50;;;;;;;15.07;11.98;;;;;;;;;;4922630;29;20422;-87
2021/10/16 03:02:18;;;;;;;14.25;11.48;;;;;;;;;;4923400;29;20431;-87
2021/10/16 03:04:47;;;;;;;14.20;11.18;;;;;;;;;;4930048;29;20457;-86
2021/10/16 03:07:14;;;;;;;13.50;10.75;;;;;;;;;;4929721;29;20434;-86
2021/10/16 03:09:41;;;;;;;13.55;10.90;;;;;;;;;;4929287;29;20859;-86
2021/10/16 03:12:08;;;;;;;13.90;10.75;;;;;;;;;;4935753;29;20418;-86
2021/10/16 03:14:34;;;;;;;13.40;10.18;;;;;;;;;;4948847;29;20410;-87
2021/10/16 03:17:01;;;;;;;14.57;10.52;;;;;;;;;;4934426;29;20799;-87
2021/10/16 03:19:28;;;;;;;12.80;10.18;;;;;;;;;;4927847;29;20432;-86
2021/10/16 03:21:57;;;;;;;12.10;9.73;;;;;;;;;;4927432;29;20415;-86
2021/10/16 03:24:24;;;;;;;13.50;9.52;;;;;;;;;;4925896;29;20542;-86
2021/10/16 03:26:51;;;;;;;13.02;9.50;;;;;;;;;;4929104;29;20465;-85
2021/10/16 03:29:18;;;;;;;12.07;9.32;;;;;;;;;;4925685;29;20808;-86
2021/10/16 03:31:45;;;;;;;13.70;10.10;;;;;;;;;;4926708;29;20513;-86
2021/10/16 03:34:14;;;;;;;12.57;9.70;;;;;;;;;;4923072;29;20421;-86
2021/10/16 03:36:41;;;;;;;11.20;9.13;;;;;;;;;;4929230;29;20409;-87
2021/10/16 03:39:09;;;;;;;11.50;8.93;;;;;;;;;;4927612;29;20418;-87
2021/10/16 03:41:36;;;;;;;11.15;8.85;;;;;;;;;;4929431;29;20422;-86
2021/10/16 03:44:03;;;;;;;10.70;8.55;;;;;;;;;;4928636;29;20409;-86
2021/10/16 03:46:30;;;;;;;11.55;9.35;;;;;;;;;;4928349;29;20477;-86
2021/10/16 03:48:57;;;;;;;11.25;9.02;;;;;;;;;;4927374;29;20438;-86
2021/10/16 03:51:24;;;;;;;11.45;8.70;;;;;;;;;;4925531;29;20825;-87
2021/10/16 03:53:50;;;;;;;9.80;8.00;;;;;;;;;;4927426;29;20425;-87
2021/10/16 03:56:19;;;;;;;9.32;7.72;;;;;;;;;;4924619;29;20414;-86
2021/10/16 03:58:45;;;;;;;10.38;8.32;;;;;;;;;;4925520;29;20442;-87
2021/10/16 04:01:13;;;;;;;10.63;8.02;;;;;;;;;;4928513;29;21089;-87
2021/10/16 04:03:40;;;;;;;9.80;7.35;;;;;;;;;;4925111;29;20480;-86
2021/10/16 04:06:07;;;;;;;10.77;7.17;;;;;;;;;;4925236;29;20434;-87
2021/10/16 04:08:34;;;;;;;13.18;7.95;;;;;;;;;;4923072;29;20431;-87
2021/10/16 04:11:01;;;;;;;13.38;8.30;;;;;;;;;;4920903;29;20430;-88
2021/10/16 04:13:29;;;;;;;10.93;7.65;;;;;;;;;;4920282;29;20443;-87
2021/10/16 04:15:56;;;;;;;11.45;7.57;;;;;;;;;;4921085;29;20425;-86
2021/10/16 04:18:23;;;;;;;8.88;7.18;;;;;;;;;;4919675;29;20436;-87
2021/10/16 04:20:50;;;;;;;8.35;6.95;;;;;;;;;;4917611;29;20418;-87
2021/10/16 04:23:17;;;;;;;8.80;7.28;;;;;;;;;;4920000;29;20506;-87
2021/10/16 04:25:44;;;;;;;11.32;7.60;;;;;;;;;;4918092;29;20949;-87
2021/10/16 04:28:10;;;;;;;8.57;7.47;;;;;;;;;;4918754;29;20426;-87
2021/10/16 04:30:41;;;;;;;10.07;7.60;;;;;;;;;;4922313;29;20419;-87
2021/10/16 04:33:08;;;;;;;10.05;7.35;;;;;;;;;;4918396;29;20474;-86
2021/10/16 04:35:35;;;;;;;11.77;7.32;;;;;;;;;;4919762;29;20422;-86
2021/10/16 04:38:02;;;;;;;9.23;7.47;;;;;;;;;;4920159;29;20433;-87
2021/10/16 04:40:29;;;;;;;9.33;7.60;;;;;;;;;;4920093;29;20425;-86
2021/10/16 04:42:57;;;;;;;9.40;7.77;;;;;;;;;;4920776;29;20956;-86
2021/10/16 04:45:24;;;;;;;13.45;7.75;;;;;;;;;;4919760;29;21015;-87
2021/10/16 04:47:52;;;;;;;13.68;7.35;;;;;;;;;;4921087;29;20969;-87
2021/10/16 04:50:19;;;;;;;9.60;7.05;;;;;;;;;;4920019;29;20456;-87
2021/10/16 04:52:46;;;;;;;11.13;7.30;;;;;;;;;;4922224;29;20783;-87
2021/10/16 04:55:13;;;;;;;12.70;8.07;;;;;;;;;;4919915;29;20451;-88
2021/10/16 04:57:39;;;;;;;11.30;7.13;;;;;;;;;;4919429;29;20434;-87
2021/10/16 05:00:09;;;;;;;9.57;7.25;;;;;;;;;;4927869;29;20423;-86
2021/10/16 05:02:36;;;;;;;9.38;6.45;;;;;;;;;;4922366;29;20463;-86
2021/10/16 05:05:05;;;;;;;7.95;6.43;;;;;;;;;;4930642;29;20414;-85
2021/10/16 05:07:32;;;;;;;8.85;6.78;;;;;;;;;;4928447;29;20501;-86
2021/10/16 05:09:58;;;;;;;9.50;6.35;;;;;;;;;;4927374;29;20450;-86
2021/10/16 05:12:26;;;;;;;9.70;6.78;;;;;;;;;;4923344;29;20472;-86
2021/10/16 05:14:52;;;;;;;7.93;6.35;;;;;;;;;;4923737;29;20489;-85
2021/10/16 05:17:19;;;;;;;7.80;6.40;;;;;;;;;;4923961;29;20417;-86
2021/10/16 05:19:46;;;;;;;7.88;6.30;;;;;;;;;;4922383;29;20419;-86
2021/10/16 05:22:14;;;;;;;9.65;6.72;;;;;;;;;;4926616;29;20422;-86
2021/10/16 05:24:41;;;;;;;8.40;6.50;;;;;;;;;;4930955;29;20456;-87
2021/10/16 05:27:08;;;;;;;7.50;6.28;;;;;;;;;;4931073;29;20522;-88
2021/10/16 05:29:35;;;;;;;10.35;6.80;;;;;;;;;;4926489;29;20445;-87
2021/10/16 05:32:04;;;;;;;7.10;6.05;;;;;;;;;;4929874;29;20409;-87
2021/10/16 05:34:31;;;;;;;7.20;5.83;;;;;;;;;;4927571;29;20831;-88
2021/10/16 05:36:58;;;;;;;10.02;7.60;;;;;;;;;;4922595;29;20433;-82
2021/10/16 05:39:26;;;;;;;14.48;9.43;;;;;;;;;;4926460;29;20426;-87
2021/10/16 05:41:53;;;;;;;13.38;9.60;;;;;;;;;;4924666;29;21159;-85
2021/10/16 05:44:20;;;;;;;15.30;9.52;;;;;;;;;;4926164;29;20420;-87
2021/10/16 05:46:47;;;;;;;13.18;9.35;;;;;;;;;;4921882;29;20416;-85
2021/10/16 05:49:14;;;;;;;15.55;9.30;;;;;;;;;;4920022;29;20433;-86
2021/10/16 05:51:41;;;;;;;11.60;8.60;;;;;;;;;;4920469;29;20825;-86
2021/10/16 05:54:07;;;;;;;9.95;6.85;;;;;;;;;;4920918;29;20446;-85
2021/10/16 05:56:36;;;;;;;8.35;7.00;;;;;;;;;;4922450;29;20746;-86
2021/10/16 05:59:03;;;;;;;8.60;6.60;;;;;;;;;;4922934;29;20448;-86
2021/10/16 06:01:30;;;;;;;10.82;7.50;;;;;;;;;;4920545;29;20429;-86
2021/10/16 06:03:57;;;;;;;9.50;6.47;;;;;;;;;;4919816;29;20780;-86
2021/10/16 06:06:24;;;;;;;8.55;6.93;;;;;;;;;;4920256;29;20427;-86
2021/10/16 06:08:51;;;;;;;7.93;6.80;;;;;;;;;;4921357;29;20445;-86
2021/10/16 06:11:18;;;;;;;8.73;6.43;;;;;;;;;;4919100;29;20412;-86
2021/10/16 06:13:46;;;;;;;9.88;6.50;;;;;;;;;;4921643;29;20421;-86
2021/10/16 06:16:13;;;;;;;8.43;6.60;;;;;;;;;;4924678;29;20473;-86
2021/10/16 06:18:43;;;;;;;9.52;6.55;;;;;;;;;;4924110;29;20459;-86
2021/10/16 06:21:10;;;;;;;8.88;6.60;;;;;;;;;;4930998;29;20491;-86
2021/10/16 06:23:37;;;;;;;9.75;6.82;;;;;;;;;;4920180;29;20435;-86
2021/10/16 06:26:04;;;;;;;8.30;6.38;;;;;;;;;;4920959;29;20426;-86
2021/10/16 06:28:31;;;;;;;7.78;6.68;;;;;;;;;;4921081;29;20425;-86
2021/10/16 06:30:59;;;;;;;9.23;6.93;;;;;;;;;;4919626;29;21031;-86
2021/10/16 06:33:26;;;;;;;9.80;7.22;;;;;;;;;;4922736;29;20470;-86
2021/10/16 06:35:54;;;;;;;8.83;6.80;;;;;;;;;;4919792;29;20758;-86
2021/10/16 06:38:21;;;;;;;8.68;6.68;;;;;;;;;;4921681;29;20864;-86
2021/10/16 06:40:48;;;;;;;10.82;6.60;;;;;;;;;;4921980;29;20858;-86
2021/10/16 06:43:15;;;;;;;7.40;6.50;;;;;;;;;;4919791;29;20484;-86
2021/10/16 06:45:42;;;;;;;9.43;6.40;;;;;;;;;;4922428;29;20433;-86
2021/10/16 06:48:10;;;;;;;9.27;6.30;;;;;;;;;;4922008;29;20410;-86
2021/10/16 06:50:37;;;;;;;11.13;6.22;;;;;;;;;;4922691;29;20410;-85
2021/10/16 06:53:04;;;;;;;9.50;6.35;;;;;;;;;;4919758;29;20894;-86
2021/10/16 06:55:31;;;;;;;8.75;6.70;;;;;;;;;;4920652;29;20425;-86
2021/10/16 06:57:58;;;;;;;8.05;6.45;;;;;;;;;;4919719;29;20775;-86
2021/10/16 07:00:25;;;;;;;10.35;6.90;;;;;;;;;;4920050;29;20414;-86
2021/10/16 07:02:51;;;;;;;8.60;6.15;;;;;;;;;;4920496;29;20661;-85
2021/10/16 07:05:20;;;;;;;7.90;6.37;;;;;;;;;;4921091;29;20421;-86
2021/10/16 07:07:46;;;;;;;7.97;6.35;;;;;;;;;;4923095;29;20407;-86
2021/10/16 07:10:14;;;;;;;11.43;6.67;;;;;;;;;;4918096;29;20970;-86
2021/10/16 07:12:41;;;;;;;13.00;6.70;;;;;;;;;;4921935;29;20410;-86
2021/10/16 07:15:10;;;;;;;12.65;6.70;;;;;;;;;;4921361;29;20422;-86
2021/10/16 07:17:37;;;;;;;9.90;7.00;;;;;;;;;;4921244;29;20414;-89
2021/10/16 07:20:06;;;;;;;8.38;6.57;;;;;;;;;;4918621;29;20413;-78
2021/10/16 07:22:34;;;;;;;10.27;6.18;;;;;;;;;;4917130;29;20763;-79
2021/10/16 07:25:01;;;;;;;11.97;6.70;;;;;;;;;;4918453;29;20422;-85
2021/10/16 07:27:30;;;;;;;9.65;6.63;;;;;;;;;;4918519;29;20420;-86
2021/10/16 07:29:57;;;;;;;10.75;6.88;;;;;;;;;;4919194;29;20442;-87
2021/10/16 07:32:24;;;;;;;11.43;7.20;;;;;;;;;;4919580;29;20428;-88
2021/10/16 07:34:50;;;;;;;8.77;7.40;;;;;;;;;;4921345;29;20417;-87
2021/10/16 07:37:17;;;;;;;9.68;7.45;;;;;;;;;;4922877;29;20417;-87
2021/10/16 07:39:46;;;;;;;9.30;7.75;;;;;;;;;;4920994;29;20411;-87
2021/10/16 07:42:12;;;;;;;10.52;8.15;;;;;;;;;;4914109;29;20444;-87
2021/10/16 07:44:39;;;;;;;11.55;9.50;;;;;;;;;;4920026;29;20411;-87
2021/10/16 07:47:06;;;;;;;10.68;8.75;;;;;;;;;;4922126;29;20789;-85
2021/10/16 07:49:33;;;;;;;9.68;7.57;;;;;;;;;;4917461;29;20531;-85
2021/10/16 07:52:00;;;;;;;10.73;7.00;;;;;;;;;;4919566;29;21081;-86
2021/10/16 07:54:27;;;;;;;10.77;8.00;;;;;;;;;;4921937;29;20413;-86
2021/10/16 07:56:57;;;;;;;11.45;7.38;;;;;;;;;;4919280;29;20753;-85
2021/10/16 07:59:24;;;;;;;9.68;6.88;;;;;;;;;;4922071;29;20816;-86
2021/10/16 08:01:50;;;;;;;9.00;7.45;;;;;;;;;;4918785;29;20761;-86
2021/10/16 08:04:17;;;;;;;11.13;7.47;;;;;;;;;;4918373;29;20406;-85
2021/10/16 08:06:44;;;;;;;10.25;7.10;;;;;;;;;;4924044;29;20429;-85
2021/10/16 08:09:11;;;;;;;8.07;6.93;;;;;;;;;;4923284;29;20434;-85
2021/10/16 08:11:38;;;;;;;8.47;6.77;;;;;;;;;;4919371;29;20755;-86
2021/10/16 08:14:06;;;;;;;7.82;6.53;;;;;;;;;;4923560;29;20427;-82
2021/10/16 08:16:33;;;;;;;8.00;5.63;;;;;;;;;;4922825;29;20405;-86
2021/10/16 08:18:59;;;;;;;8.35;5.10;;;;;;;;;;4915648;29;20419;-80
2021/10/16 08:21:26;;;;;;;6.15;5.22;;;;;;;;;;4917169;29;20419;-79
2021/10/16 08:23:53;;;;;;;16.10;5.93;;;;;;;;;;4916129;29;20414;-79
2021/10/16 08:26:20;;;;;;;6.93;4.80;;;;;;;;;;4918154;29;20424;-79
2021/10/16 08:28:48;;;;;;;5.10;4.55;;;;;;;;;;4917321;29;20908;-86
2021/10/16 08:31:17;;;;;;;5.90;4.90;;;;;;;;;;4917758;29;20410;-85
2021/10/16 08:33:44;;;;;;;6.00;4.47;;;;;;;;;;4915895;29;20410;-85
2021/10/16 08:36:12;;;;;;;4.88;4.40;;;;;;;;;;4916821;29;20414;-87
2021/10/16 08:38:39;;;;;;;5.85;4.80;;;;;;;;;;4917929;29;20425;-86
2021/10/16 08:41:06;;;;;;;7.18;4.53;;;;;;;;;;4916937;29;20426;-88
2021/10/16 08:43:33;;;;;;;6.32;4.43;;;;;;;;;;4915484;29;20492;-88
2021/10/16 08:46:03;;;;;;;5.85;4.57;;;;;;;;;;4915040;29;20411;-88
2021/10/16 08:48:31;;;;;;;7.15;4.60;;;;;;;;;;4918224;29;20414;-89
2021/10/16 08:51:00;;;;;;;6.03;4.37;;;;;;;;;;4918237;29;20431;-88
2021/10/16 08:53:27;;;;;;;4.83;3.90;;;;;;;;;;4919609;29;20419;-86
2021/10/16 08:55:55;;;;;;;5.30;3.95;;;;;;;;;;4918500;29;20841;-86
2021/10/16 08:58:22;;;;;;;6.28;4.05;;;;;;;;;;4922209;29;20410;-88
2021/10/16 09:00:52;;;;;;;5.50;4.10;;;;;;;;;;4918487;29;20499;-87
2021/10/16 09:03:22;;;;;;;6.43;4.20;;;;;;;;;;4915460;29;20889;-88
2021/10/16 09:06:16;;;;;;;3.70;3.35;;;;;;;;;;4915679;29;20757;-88
2021/10/16 09:08:47;;;;;;;4.13;3.03;;;;;;;;;;4905648;29;20417;-87
2021/10/16 09:11:23;;;;;;;5.13;3.08;;;;;;;;;;4916585;29;20696;-88
2021/10/16 09:13:53;;;;;;;3.20;2.50;;;;;;;;;;4924035;29;20417;-88
2021/10/16 09:16:39;;;;;;;6.13;2.45;;;;;;;;;;4937607;29;20411;-86
2021/10/16 09:19:13;;;;;;;7.03;2.90;;;;;;;;;;4938233;29;20425;-82
2021/10/16 09:21:44;;;;;;;5.00;2.40;;;;;;;;;;4921924;29;20413;-75
2021/10/16 09:24:17;;;;;;;3.90;2.50;;;;;;;;;;4915552;29;20480;-75
2021/10/16 09:26:46;;;;;;;4.18;2.70;;;;;;;;;;4923246;29;20401;-87
2021/10/16 09:29:18;;;;;;;2.95;2.60;;;;;;;;;;4933754;29;20421;-85
2021/10/16 09:31:47;;;;;;;3.05;2.75;;;;;;;;;;4937165;29;20426;-87
2021/10/16 09:34:14;;;;;;;3.83;2.30;;;;;;;;;;4925099;29;20413;-77
2021/10/16 09:36:43;;;;;;;2.53;2.25;;;;;;;;;;4920481;29;20409;-86
2021/10/16 09:39:17;;;;;;;2.80;2.50;;;;;;;;;;4931540;29;20412;-86
2021/10/16 09:41:44;;;;;;;4.60;3.10;;;;;;;;;;4925573;29;20887;-86
2021/10/16 09:44:22;;;;;;;4.18;2.90;;;;;;;;;;4917788;29;20417;-86
2021/10/16 09:47:09;;;;;;;3.63;2.83;;;;;;;;;;4920595;29;20796;-77
2021/10/16 09:49:39;;;;;;;4.15;2.72;;;;;;;;;;4925590;29;20417;-86
2021/10/16 09:52:09;;;;;;;3.60;2.90;;;;;;;;;;4922404;29;20421;-86
2021/10/16 09:54:36;;;;;;;3.78;3.08;;;;;;;;;;4920578;29;20425;-87
2021/10/16 09:57:08;;;;;;;4.32;2.72;;;;;;;;;;4927264;29;20436;-87
2021/10/16 09:59:37;;;;;;;3.70;2.40;;;;;;;;;;4920886;29;20418;-87
2021/10/16 10:02:05;;;;;;;3.55;2.72;;;;;;;;;;4923315;29;20418;-88
2021/10/16 10:04:36;;;;;;;3.30;2.70;;;;;;;;;;4924480;29;20766;-86
2021/10/16 10:07:04;;;;;;;3.78;3.00;;;;;;;;;;4922218;29;20419;-87
2021/10/16 10:09:34;;;;;;;3.63;2.88;;;;;;;;;;4925182;29;20494;-87
2021/10/16 10:12:02;;;;;;;3.65;3.00;;;;;;;;;;4930019;29;20434;-85
2021/10/16 10:14:29;;;;;;;3.85;2.95;;;;;;;;;;4926695;29;20426;-85
2021/10/16 10:17:00;;;;;;;4.72;2.80;;;;;;;;;;4922821;29;20414;-85
2021/10/16 10:19:29;;;;;;;4.00;3.05;;;;;;;;;;4921108;29;20444;-88
2021/10/16 10:21:57;;;;;;;4.55;2.97;;;;;;;;;;4921793;29;20795;-87
2021/10/16 10:24:38;;;;;;;5.05;3.22;;;;;;;;;;4919072;29;20414;-86
2021/10/16 10:27:11;;;;;;;5.07;3.25;;;;;;;;;;4922480;29;20445;-85
2021/10/16 10:29:39;;;;;;;3.78;3.38;;;;;;;;;;4924086;29;20908;-86
2021/10/16 10:32:07;;;;;;;4.15;3.30;;;;;;;;;;4924550;29;20419;-87
2021/10/16 10:34:38;;;;;;;4.20;3.50;;;;;;;;;;4917516;29;20415;-87
2021/10/16 10:37:11;;;;;;;6.80;3.45;;;;;;;;;;4922852;29;20468;-87
2021/10/16 10:39:57;;;;;;;5.00;3.30;;;;;;;;;;4921848;29;20447;-85
2021/10/16 10:42:43;;;;;;;4.60;3.47;;;;;;;;;;4923049;29;20418;-85
2021/10/16 10:45:41;;;;;;;5.60;3.50;;;;;;;;;;4921416;29;20409;-86
2021/10/16 10:48:17;;;;;;;5.95;3.30;;;;;;;;;;4923096;29;20441;-85
2021/10/16 10:50:56;;;;;;;6.07;3.35;;;;;;;;;;4922809;29;20425;-86
2021/10/16 10:53:41;;;;;;;3.20;2.80;;;;;;;;;;4922305;29;20505;-86
2021/10/16 10:56:24;;;;;;;4.60;3.05;;;;;;;;;;4923030;29;20412;-86
2021/10/16 10:59:14;;;;;;;4.13;3.47;;;;;;;;;;4923234;29;20429;-85
2021/10/16 11:01:52;;;;;;;4.70;3.28;;;;;;;;;;4921972;29;20418;-84
2021/10/16 11:04:39;;;;;;;5.07;3.65;;;;;;;;;;4922962;29;20489;-86
2021/10/16 11:07:10;;;;;;;4.03;3.03;;;;;;;;;;4919022;29;20461;-87
2021/10/16 11:09:36;;;;;;;5.97;2.95;;;;;;;;;;4923083;29;20969;-82
2021/10/16 11:12:06;;;;;;;3.58;2.40;;;;;;;;;;4927149;29;20421;-87
2021/10/16 11:14:35;;;;;;;3.47;2.15;;;;;;;;;;4926225;29;20422;-91
2021/10/16 11:17:06;;;;;;;2.95;2.35;;;;;;;;;;4922008;29;20418;-87
2021/10/16 11:19:47;;;;;;;4.00;2.50;;;;;;;;;;4915041;29;20431;-89
2021/10/16 11:22:14;;;;;;;4.20;2.58;;;;;;;;;;4924117;29;20406;-86
2021/10/16 11:24:43;;;;;;;2.40;2.20;;;;;;;;;;4924097;29;20416;-87
2021/10/16 11:27:12;;;;;;;3.80;2.30;;;;;;;;;;4921999;29;20510;-87
2021/10/16 11:29:40;;;;;;;3.10;2.17;;;;;;;;;;4923932;29;20425;-87
2021/10/16 11:32:15;;;;;;;4.25;1.80;;;;;;;;;;4918071;29;20437;-87
2021/10/16 11:34:54;;;;;;;2.92;2.00;;;;;;;;;;4913613;29;20418;-88
2021/10/16 11:37:36;;;;;;;2.35;1.95;;;;;;;;;;4913651;29;20418;-87
2021/10/16 11:40:06;;;;;;;2.88;1.98;;;;;;;;;;4919210;29;20419;-87
2021/10/16 11:42:36;;;;;;;2.45;1.70;;;;;;;;;;4915845;29;20415;-88
2021/10/16 11:45:04;;;;;;;3.27;1.80;;;;;;;;;;4920545;29;20909;-87
2021/10/16 11:47:31;;;;;;;2.33;1.88;;;;;;;;;;4913920;29;20418;-87
2021/10/16 11:50:10;;;;;;;2.10;1.90;;;;;;;;;;4915445;29;20425;-86
2021/10/16 11:52:37;;;;;;;3.00;1.75;;;;;;;;;;4916114;29;20513;-86
2021/10/16 11:55:16;;;;;;;2.22;1.60;;;;;;;;;;4919393;29;20417;-84
2021/10/16 11:57:44;;;;;;;2.30;1.60;;;;;;;;;;4922244;29;20803;-86
2021/10/16 12:00:23;;;;;;;3.45;1.63;;;;;;;;;;4916516;29;20415;-85
2021/10/16 12:02:50;;;;;;;1.70;1.60;;;;;;;;;;4918755;29;20428;-84
2021/10/16 12:05:19;;;;;;;1.88;1.63;;;;;;;;;;4918919;29;20406;-85
2021/10/16 12:07:46;;;;;;;2.13;1.50;;;;;;;;;;4920431;29;20416;-85
2021/10/16 12:10:24;;;;;;;3.05;1.58;;;;;;;;;;4925042;28;20434;-85
2021/10/16 12:13:04;;;;;;;1.70;1.40;;;;;;;;;;4916311;29;20430;-83
2021/10/16 12:15:41;;;;;;;2.17;1.55;;;;;;;;;;4921156;29;20417;-85
2021/10/16 12:18:18;;;;;;;1.77;1.63;;;;;;;;;;4919761;29;20506;-86
2021/10/16 12:20:47;;;;;;;1.73;1.50;;;;;;;;;;4923039;29;20404;-90
2021/10/16 12:23:15;;;;;;;2.25;1.60;;;;;;;;;;4922617;29;20429;-88
2021/10/16 12:25:46;;;;;;;1.83;1.40;;;;;;;;;;4924242;29;20429;-88
2021/10/16 12:28:15;;;;;;;2.20;1.38;;;;;;;;;;4920604;29;20474;-88
2021/10/16 12:31:11;;;;;;;1.63;1.15;;;;;;;;;;4915189;29;20431;-88
2021/10/16 12:34:01;;;;;;;1.75;1.05;;;;;;;;;;4911183;29;20508;-87
2021/10/16 12:36:30;;;;;;;1.98;1.23;;;;;;;;;;4922742;29;20445;-78
2021/10/16 12:38:58;;;;;;;2.30;1.40;;;;;;;;;;4920663;29;20422;-77
2021/10/16 12:41:27;;;;;;;1.88;1.23;;;;;;;;;;4921258;29;20477;-76
2021/10/16 12:43:56;;;;;;;1.98;1.20;;;;;;;;;;4910518;29;20425;-90
2021/10/16 12:46:30;;;;;;;1.27;1.10;;;;;;;;;;4920068;29;20421;-90
2021/10/16 12:48:57;;;;;;;1.35;1.17;;;;;;;;;;4920169;29;20436;-88
2021/10/16 12:51:41;;;;;;;2.92;1.20;;;;;;;;;;4922108;29;20520;-89
2021/10/16 12:54:09;;;;;;;1.25;1.10;;;;;;;;;;4922832;29;20417;-89
2021/10/16 12:56:36;;;;;;;1.52;1.20;;;;;;;;;;4921095;29;20409;-88
2021/10/16 12:59:05;;;;;;;1.10;1.00;;;;;;;;;;4918633;29;20409;-90
2021/10/16 13:01:32;;;;;;;1.15;1.05;;;;;;;;;;4921161;29;20420;-88
2021/10/16 13:03:59;;;;;;;1.45;1.25;;;;;;;;;;4916766;29;20839;-90
2021/10/16 13:06:26;;;;;;;1.30;1.00;;;;;;;;;;4921032;29;20425;-90
2021/10/16 13:08:53;;;;;;;1.60;1.10;;;;;;;;;;4921260;29;20429;-86
2021/10/16 13:11:20;;;;;;;1.77;1.17;;;;;;;;;;4918932;29;20448;-88
2021/10/16 13:13:47;;;;;;;1.20;1.10;;;;;;;;;;4922289;29;20426;-82
2021/10/16 13:16:16;;;;;;;1.60;1.10;;;;;;;;;;4918004;29;20467;-82
2021/10/16 13:18:43;;;;;;;1.60;0.90;;;;;;;;;;4920217;29;20414;-84
2021/10/16 13:21:10;;;;;;;2.08;1.20;;;;;;;;;;4920865;29;20500;-81
2021/10/16 13:23:38;;;;;;;2.00;1.23;;;;;;;;;;4922843;29;20431;-81
2021/10/16 13:26:05;;;;;;;1.52;0.90;;;;;;;;;;4924466;29;20514;-85
2021/10/16 13:28:32;;;;;;;2.03;1.08;;;;;;;;;;4927357;29;20434;-83
2021/10/16 13:30:59;;;;;;;1.58;0.90;;;;;;;;;;4926017;29;20431;-84
2021/10/16 13:33:27;;;;;;;2.50;1.10;;;;;;;;;;4924265;29;20428;-83
2021/10/16 13:35:54;;;;;;;1.08;0.90;;;;;;;;;;4920174;29;21180;-84
2021/10/16 13:38:22;;;;;;;3.47;1.30;;;;;;;;;;4923615;29;20409;-83
2021/10/16 13:40:50;;;;;;;1.20;1.10;;;;;;;;;;4919911;29;20411;-85
2021/10/16 13:43:17;;;;;;;1.73;1.00;;;;;;;;;;4924395;29;20491;-84
2021/10/16 13:45:45;;;;;;;1.45;1.00;;;;;;;;;;4921863;29;20511;-84
2021/10/16 13:48:12;;;;;;;1.83;1.20;;;;;;;;;;4921035;29;20410;-80
2021/10/16 13:50:40;;;;;;;6.22;4.25;;;;;;;;;;4921099;29;20420;-84
2021/10/16 13:53:07;;;;;;;8.02;5.30;;;;;;;;;;4921359;29;20423;-84
2021/10/16 13:55:34;;;;;;;6.10;5.50;;;;;;;;;;4916021;29;20444;-83
2021/10/16 13:58:01;;;;;;;14.95;12.93;;;;;;;;;;4920385;29;20455;-83
2021/10/16 14:00:28;;;;;;;6.07;5.07;;;;;;;;;;4918473;29;20964;-82
2021/10/16 14:02:55;;;;;;;1.35;1.25;;;;;;;;;;4916358;29;21057;-83
2021/10/16 14:05:21;;;;;;;2.35;2.13;;;;;;;;;;4914577;29;20428;-81
2021/10/16 14:07:50;;;;;;;1.65;1.42;;;;;;;;;;4918999;29;20417;-80
2021/10/16 14:10:19;;;;;;;3.83;1.80;;;;;;;;;;4915658;29;20422;-82
2021/10/16 14:12:46;;;;;;;1.73;1.00;;;;;;;;;;4918412;29;20424;-81
2021/10/16 14:15:13;;;;;;;0.98;0.93;;;;;;;;;;4919009;29;20933;-82
2021/10/16 14:17:40;;;;;;;1.10;1.00;;;;;;;;;;4918988;29;20425;-78
2021/10/16 14:20:09;;;;;;;4.53;3.45;;;;;;;;;;4918040;29;20427;-80
2021/10/16 14:22:36;;;;;;;12.23;4.55;;;;;;;;;;4918986;29;20475;-82
2021/10/16 14:25:07;;;;;;;1.98;1.50;;;;;;;;;;4920484;29;20440;-83
2021/10/16 14:27:35;;;;;;;2.73;1.60;;;;;;;;;;4917826;29;20417;-81
2021/10/16 14:30:01;;;;;;;8.98;6.47;;;;;;;;;;4922199;29;20862;-81
2021/10/16 14:32:28;;;;;;;4.18;2.60;;;;;;;;;;4915505;29;20443;-81
2021/10/16 14:34:55;;;;;;;2.17;1.80;;;;;;;;;;4919208;29;20473;-80
2021/10/16 14:37:22;;;;;;;8.13;5.78;;;;;;;;;;4923052;29;20429;-82
2021/10/16 14:39:48;;;;;;;3.15;1.75;;;;;;;;;;4919553;29;20415;-83
2021/10/16 14:42:17;;;;;;;4.47;3.65;;;;;;;;;;4923295;29;20469;-84
2021/10/16 14:44:45;;;;;;;7.82;5.25;;;;;;;;;;4921627;29;20413;-76